Time;durP1;ratioP1;P1;durP2;ratioP2;P2;SDS_P1;SDS_P2;PMS_P1;PMS_P2;Temp;Humidity;BMP_temperature;BMP_pressure;BME280_temperature;BME280_humidity;BME280_pressure;Samples;Min_cycle;Max_cycle;Signal;HPM_P1;HPM_P2
2021/01/28 00:01:10;;;;;;;77.00;41.28;;;-0.80;95.00;;;;;;4998992;28;20240;-72
2021/01/28 00:03:38;;;;;;;98.13;43.28;;;-0.60;95.20;;;;;;4997081;28;20205;-72
2021/01/28 00:06:05;;;;;;;66.72;40.75;;;-0.90;95.30;;;;;;4990103;28;20273;-72
2021/01/28 00:08:32;;;;;;;61.97;39.35;;;-0.80;95.50;;;;;;4992515;28;20522;-72
2021/01/28 00:10:58;;;;;;;71.03;43.22;;;-0.10;95.90;;;;;;4993911;28;20252;-72
2021/01/28 00:13:25;;;;;;;71.10;41.20;;;-0.40;95.80;;;;;;4990629;28;20301;-71
2021/01/28 00:15:52;;;;;;;70.95;42.53;;;-1.00;95.60;;;;;;4979217;28;20301;-72
2021/01/28 00:18:19;;;;;;;81.55;45.17;;;-1.00;95.80;;;;;;4998207;28;20567;-72
2021/01/28 00:20:48;;;;;;;76.50;42.92;;;-0.50;96.00;;;;;;4986567;28;20230;-71
2021/01/28 00:23:16;;;;;;;66.30;39.38;;;-1.00;95.70;;;;;;4996934;28;20205;-72
2021/01/28 00:25:43;;;;;;;70.82;39.47;;;-1.00;95.60;;;;;;4998609;28;20213;-73
2021/01/28 00:28:13;;;;;;;57.78;37.08;;;-0.90;95.40;;;;;;4997874;28;20201;-73
2021/01/28 00:30:46;;;;;;;66.10;34.83;;;-0.90;95.60;;;;;;4998106;28;20419;-71
2021/01/28 00:33:17;;;;;;;62.28;36.15;;;-1.00;95.50;;;;;;4995093;28;20253;-72
2021/01/28 00:35:46;;;;;;;56.80;36.58;;;-1.00;95.60;;;;;;4987484;28;20214;-72
2021/01/28 00:38:20;;;;;;;65.32;36.63;;;1.20;96.20;;;;;;4995623;28;20213;-72
2021/01/28 00:40:47;;;;;;;52.90;34.75;;;0.80;96.20;;;;;;4988181;28;20630;-71
2021/01/28 00:43:14;;;;;;;57.28;36.83;;;-1.00;95.60;;;;;;4993497;28;20229;-71
2021/01/28 00:45:41;;;;;;;52.63;32.42;;;-0.90;95.50;;;;;;4998546;28;20220;-73
2021/01/28 00:48:10;;;;;;;50.97;32.08;;;0.10;95.60;;;;;;4998947;28;20570;-73
2021/01/28 00:50:38;;;;;;;56.00;31.63;;;-0.10;95.60;;;;;;4997976;28;20799;-73
2021/01/28 00:53:05;;;;;;;55.33;33.38;;;-1.00;95.40;;;;;;4997752;28;20240;-74
2021/01/28 00:55:32;;;;;;;55.53;33.05;;;-1.00;95.30;;;;;;4994150;28;20407;-72
2021/01/28 00:57:59;;;;;;;47.75;31.23;;;-0.30;95.30;;;;;;4990751;28;20495;-71
2021/01/28 01:00:38;;;;;;;53.20;36.17;;;-0.60;95.20;;;;;;4995862;28;20296;-72
2021/01/28 01:03:08;;;;;;;59.58;35.40;;;-1.00;95.10;;;;;;4982248;28;20206;-72
2021/01/28 01:05:38;;;;;;;62.08;35.10;;;-1.00;95.10;;;;;;4995247;28;20206;-72
2021/01/28 01:08:07;;;;;;;57.53;34.55;;;-1.00;95.10;;;;;;4986892;28;20233;-71
2021/01/28 01:10:39;;;;;;;54.67;33.75;;;-0.90;94.90;;;;;;4985394;28;20624;-72
2021/01/28 01:13:08;;;;;;;61.80;38.28;;;-0.90;94.70;;;;;;4995616;28;20212;-73
2021/01/28 01:15:36;;;;;;;57.53;36.90;;;-0.90;94.70;;;;;;4984280;28;20253;-72
2021/01/28 01:18:05;;;;;;;53.08;34.17;;;-1.00;94.70;;;;;;4987924;28;20245;-72
2021/01/28 01:20:32;;;;;;;55.55;36.10;;;-1.00;94.70;;;;;;4988542;28;20305;-73
2021/01/28 01:22:59;;;;;;;49.72;31.77;;;-0.80;94.50;;;;;;4997787;28;20206;-73
2021/01/28 01:25:26;;;;;;;62.40;33.80;;;-0.90;94.30;;;;;;4989205;28;20276;-73
2021/01/28 01:27:53;;;;;;;57.60;37.22;;;-0.40;94.40;;;;;;4997657;28;20216;-73
2021/01/28 01:30:21;;;;;;;72.35;37.15;;;-0.40;94.60;;;;;;4994898;28;20527;-72
2021/01/28 01:32:49;;;;;;;52.22;32.72;;;-0.80;94.10;;;;;;4984452;28;20210;-72
2021/01/28 01:35:19;;;;;;;64.80;37.67;;;-1.00;94.20;;;;;;4991653;28;20205;-72
2021/01/28 01:37:46;;;;;;;54.55;34.40;;;-0.90;94.30;;;;;;4989432;28;20206;-72
2021/01/28 01:40:17;;;;;;;61.70;35.75;;;-0.90;94.40;;;;;;4997456;28;20293;-72
2021/01/28 01:42:47;;;;;;;48.30;31.38;;;-0.90;94.20;;;;;;4992921;28;20210;-72
2021/01/28 01:45:14;;;;;;;66.50;35.63;;;-0.80;94.10;;;;;;5000999;28;20264;-73
2021/01/28 01:47:48;;;;;;;61.83;33.83;;;-0.90;94.10;;;;;;4992981;28;20244;-72
2021/01/28 01:50:25;;;;;;;59.63;34.75;;;-0.90;94.20;;;;;;5001198;28;20555;-72
2021/01/28 01:52:51;;;;;;;54.40;32.33;;;-1.00;94.20;;;;;;5000864;28;20503;-72
2021/01/28 01:55:18;;;;;;;66.15;34.15;;;0.00;94.60;;;;;;4991982;28;20232;-71
2021/01/28 01:57:45;;;;;;;50.42;30.90;;;-1.00;94.40;;;;;;4982134;28;20273;-71
2021/01/28 02:00:14;;;;;;;51.35;30.35;;;-1.00;94.20;;;;;;4981676;28;20300;-71
2021/01/28 02:02:46;;;;;;;55.90;31.25;;;-1.00;94.30;;;;;;4995180;28;20233;-71
2021/01/28 02:05:38;;;;;;;57.08;33.60;;;-0.10;94.40;;;;;;4983418;28;20207;-71
2021/01/28 02:08:05;;;;;;;48.08;29.42;;;-0.80;94.00;;;;;;4979911;28;20222;-72
2021/01/28 02:10:32;;;;;;;50.47;32.97;;;-0.80;93.90;;;;;;4991125;28;20405;-72
2021/01/28 02:13:00;;;;;;;56.92;34.50;;;-0.70;93.90;;;;;;4997624;28;20602;-72
2021/01/28 02:15:27;;;;;;;50.50;30.33;;;0.70;94.20;;;;;;4996225;28;20238;-72
2021/01/28 02:17:57;;;;;;;49.80;32.22;;;0.00;93.70;;;;;;4988061;28;20210;-72
2021/01/28 02:20:50;;;;;;;48.92;31.42;;;-0.20;93.70;;;;;;5000956;28;20237;-71
2021/01/28 02:23:35;;;;;;;54.72;31.95;;;-0.80;93.80;;;;;;5000514;28;20202;-71
2021/01/28 02:26:05;;;;;;;47.25;31.98;;;-0.60;94.20;;;;;;4991101;28;20213;-71
2021/01/28 02:28:33;;;;;;;49.80;31.60;;;0.60;94.70;;;;;;4991463;28;20217;-71
2021/01/28 02:31:01;;;;;;;45.67;30.38;;;-0.60;94.30;;;;;;4998875;28;20220;-71
2021/01/28 02:33:43;;;;;;;78.22;38.08;;;-1.00;94.20;;;;;;4981298;28;20264;-72
2021/01/28 02:36:11;;;;;;;44.00;29.73;;;-1.00;94.40;;;;;;4996223;28;20206;-71
2021/01/28 02:38:37;;;;;;;96.70;49.03;;;-0.50;94.40;;;;;;5001365;28;20202;-70
2021/01/28 02:41:06;;;;;;;55.90;34.50;;;-1.10;94.50;;;;;;5000315;28;20241;-70
2021/01/28 02:43:32;;;;;;;48.55;30.92;;;-1.20;94.50;;;;;;4988930;28;20209;-70
2021/01/28 02:46:11;;;;;;;40.20;28.65;;;-1.10;94.60;;;;;;4994238;28;20213;-70
2021/01/28 02:48:38;;;;;;;52.53;30.02;;;-1.10;94.40;;;;;;4990028;28;20209;-70
2021/01/28 02:51:07;;;;;;;43.70;29.58;;;-1.30;94.80;;;;;;5000735;28;20227;-71
2021/01/28 02:53:39;;;;;;;52.13;31.00;;;-0.40;95.20;;;;;;4997644;28;20701;-71
2021/01/28 02:56:06;;;;;;;48.40;28.92;;;-1.20;94.80;;;;;;4992730;28;20212;-71
2021/01/28 02:58:32;;;;;;;41.42;26.52;;;-1.20;94.80;;;;;;4990119;28;20209;-71
2021/01/28 03:00:59;;;;;;;45.22;29.38;;;-1.10;94.70;;;;;;4995826;28;20230;-70
2021/01/28 03:03:26;;;;;;;52.45;30.52;;;-1.10;94.70;;;;;;4982160;28;20209;-70
2021/01/28 03:05:53;;;;;;;44.30;28.58;;;-1.00;94.50;;;;;;4985860;28;20206;-71
2021/01/28 03:08:21;;;;;;;43.22;29.02;;;-0.40;94.80;;;;;;4993971;28;20238;-70
2021/01/28 03:10:49;;;;;;;48.67;28.17;;;0.80;95.00;;;;;;4997237;28;20281;-70
2021/01/28 03:13:15;;;;;;;45.33;29.58;;;-1.00;94.40;;;;;;4995576;28;20285;-71
2021/01/28 03:15:42;;;;;;;48.67;30.80;;;-0.60;94.60;;;;;;4997053;28;20248;-71
2021/01/28 03:18:10;;;;;;;43.00;30.00;;;-0.50;93.90;;;;;;4999148;28;20209;-70
2021/01/28 03:20:38;;;;;;;71.07;35.65;;;-0.40;93.70;;;;;;4996878;28;20532;-71
2021/01/28 03:23:07;;;;;;;43.40;27.90;;;-0.40;93.40;;;;;;4999458;28;20215;-70
2021/01/28 03:25:33;;;;;;;37.05;25.88;;;-0.30;93.40;;;;;;4994238;28;20210;-71
2021/01/28 03:28:00;;;;;;;41.83;25.05;;;-0.20;93.10;;;;;;4999595;28;20532;-71
2021/01/28 03:30:31;;;;;;;41.78;25.33;;;0.10;92.80;;;;;;4999265;28;20215;-69
2021/01/28 03:32:59;;;;;;;53.30;34.25;;;0.10;92.50;;;;;;4997154;28;20237;-71
2021/01/28 03:35:26;;;;;;;40.97;26.00;;;0.20;92.70;;;;;;4994322;28;20248;-72
2021/01/28 03:37:53;;;;;;;36.58;24.02;;;0.30;92.40;;;;;;4998568;28;20205;-70
2021/01/28 03:40:23;;;;;;;42.50;24.60;;;0.40;92.20;;;;;;4999537;28;20261;-71
2021/01/28 03:42:50;;;;;;;39.30;22.80;;;0.40;91.90;;;;;;4995765;28;20229;-71
2021/01/28 03:45:16;;;;;;;53.28;28.92;;;0.60;91.50;;;;;;4999330;28;20689;-71
2021/01/28 03:47:43;;;;;;;66.03;37.20;;;0.60;91.20;;;;;;4999240;28;20224;-71
2021/01/28 03:50:13;;;;;;;51.15;33.92;;;0.70;91.10;;;;;;4996573;28;20210;-71
2021/01/28 03:52:39;;;;;;;45.05;28.17;;;0.70;91.00;;;;;;4988591;28;20765;-71
2021/01/28 03:55:07;;;;;;;46.60;26.33;;;0.60;91.10;;;;;;4993828;28;20209;-71
2021/01/28 03:57:33;;;;;;;35.60;23.60;;;0.60;91.00;;;;;;4984266;28;20273;-70
2021/01/28 04:00:00;;;;;;;27.60;19.83;;;0.60;90.90;;;;;;4990248;28;20292;-71
2021/01/28 04:02:26;;;;;;;42.30;28.27;;;0.80;91.00;;;;;;4993206;28;20210;-71
2021/01/28 04:04:53;;;;;;;62.53;35.90;;;0.40;91.10;;;;;;4984818;28;20361;-71
2021/01/28 04:07:19;;;;;;;30.95;20.10;;;0.70;91.20;;;;;;4985976;28;20298;-70
2021/01/28 04:09:47;;;;;;;42.30;25.98;;;0.30;91.20;;;;;;4999407;28;20209;-70
2021/01/28 04:12:14;;;;;;;35.50;22.13;;;0.60;91.50;;;;;;4996622;28;20213;-71
2021/01/28 04:14:40;;;;;;;33.60;18.95;;;0.30;91.60;;;;;;4997277;28;20237;-70
2021/01/28 04:17:10;;;;;;;32.55;20.27;;;0.40;91.50;;;;;;4997949;28;20550;-71
2021/01/28 04:19:37;;;;;;;28.83;18.55;;;0.40;91.50;;;;;;4997389;28;20427;-70
2021/01/28 04:22:04;;;;;;;20.80;14.55;;;1.00;91.40;;;;;;4996181;28;20214;-70
2021/01/28 04:24:31;;;;;;;24.08;16.63;;;0.50;91.10;;;;;;4997055;28;20212;-70
2021/01/28 04:26:58;;;;;;;22.83;14.90;;;0.60;91.20;;;;;;4997128;28;20206;-69
2021/01/28 04:29:24;;;;;;;24.88;17.80;;;0.80;91.00;;;;;;4997789;28;20228;-70
2021/01/28 04:31:51;;;;;;;24.95;17.50;;;1.40;90.70;;;;;;4996458;28;20213;-70
2021/01/28 04:34:18;;;;;;;22.85;16.60;;;1.00;90.70;;;;;;4998123;28;20221;-70
2021/01/28 04:36:44;;;;;;;31.75;20.13;;;0.70;91.10;;;;;;4998358;28;20281;-69
2021/01/28 04:39:11;;;;;;;25.38;17.33;;;0.90;91.20;;;;;;4994060;28;20249;-70
2021/01/28 04:41:37;;;;;;;28.52;16.58;;;0.50;91.10;;;;;;4985917;28;20300;-70
2021/01/28 04:44:05;;;;;;;25.10;15.70;;;0.40;91.40;;;;;;4981991;28;20217;-70
2021/01/28 04:46:41;;;;;;;23.30;16.00;;;0.50;91.50;;;;;;4987013;28;20389;-71
2021/01/28 04:49:13;;;;;;;21.83;15.80;;;0.60;91.20;;;;;;4986160;28;20209;-70
2021/01/28 04:51:44;;;;;;;26.17;16.38;;;0.70;91.30;;;;;;4997822;28;20395;-69
2021/01/28 04:54:35;;;;;;;21.70;14.70;;;0.80;90.90;;;;;;4996868;28;20205;-71
2021/01/28 04:57:10;;;;;;;27.60;15.57;;;0.80;90.80;;;;;;4995967;28;20224;-71
2021/01/28 04:59:43;;;;;;;21.98;16.52;;;1.10;90.60;;;;;;4997202;28;20419;-70
2021/01/28 05:02:17;;;;;;;23.02;15.73;;;1.00;90.60;;;;;;4996602;28;20269;-69
2021/01/28 05:04:48;;;;;;;21.48;16.33;;;1.00;90.60;;;;;;4986347;28;20398;-69
2021/01/28 05:07:32;;;;;;;27.75;15.95;;;1.20;90.30;;;;;;4978011;28;20388;-70
2021/01/28 05:10:39;;;;;;;26.52;16.83;;;1.00;90.30;;;;;;4987755;28;20328;-70
2021/01/28 05:13:06;;;;;;;27.23;15.15;;;1.00;90.20;;;;;;4980954;28;20675;-70
2021/01/28 05:15:36;;;;;;;25.73;14.77;;;1.20;90.00;;;;;;4995327;28;20240;-70
2021/01/28 05:18:29;;;;;;;22.23;14.95;;;1.20;89.90;;;;;;4995468;28;20214;-70
2021/01/28 05:21:06;;;;;;;25.00;16.85;;;1.00;90.50;;;;;;4997150;28;20227;-70
2021/01/28 05:23:36;;;;;;;25.08;16.38;;;0.80;91.10;;;;;;5002496;28;20209;-70
2021/01/28 05:26:25;;;;;;;25.95;17.02;;;0.80;91.10;;;;;;4998630;28;20604;-71
2021/01/28 05:28:52;;;;;;;23.27;16.73;;;0.80;91.20;;;;;;4993695;28;20205;-71
2021/01/28 05:31:31;;;;;;;29.92;17.55;;;1.10;91.00;;;;;;4995268;28;20214;-70
2021/01/28 05:34:09;;;;;;;22.77;16.17;;;1.00;91.00;;;;;;4988233;28;20248;-70
2021/01/28 05:36:43;;;;;;;28.02;18.02;;;1.10;90.80;;;;;;4986594;28;20259;-71
2021/01/28 05:39:27;;;;;;;23.88;15.90;;;1.10;90.70;;;;;;5003255;28;20293;-71
2021/01/28 05:42:11;;;;;;;29.38;19.42;;;1.20;90.70;;;;;;4987748;28;20241;-71
2021/01/28 05:44:38;;;;;;;25.35;17.40;;;1.10;90.90;;;;;;4989162;28;20208;-71
2021/01/28 05:47:18;;;;;;;29.15;18.52;;;1.40;90.50;;;;;;4986887;28;20205;-71
2021/01/28 05:49:46;;;;;;;29.10;19.42;;;1.40;90.60;;;;;;4989924;28;20313;-70
2021/01/28 05:52:13;;;;;;;25.73;18.13;;;1.50;90.50;;;;;;4995030;28;20230;-71
2021/01/28 05:54:41;;;;;;;41.13;19.88;;;1.70;90.00;;;;;;5000122;28;20206;-70
2021/01/28 05:57:24;;;;;;;28.85;19.85;;;2.00;89.30;;;;;;4991418;28;20210;-71
2021/01/28 06:00:16;;;;;;;30.02;18.30;;;1.80;89.40;;;;;;4994594;28;20244;-71
2021/01/28 06:03:11;;;;;;;30.88;18.67;;;1.60;90.00;;;;;;5001082;28;20209;-71
2021/01/28 06:06:04;;;;;;;25.83;16.75;;;1.40;90.60;;;;;;4985097;28;20206;-71
2021/01/28 06:08:44;;;;;;;27.33;18.05;;;1.50;90.80;;;;;;5003169;28;20229;-72
2021/01/28 06:11:39;;;;;;;27.25;21.23;;;1.50;90.80;;;;;;5003157;28;20211;-72
2021/01/28 06:14:27;;;;;;;28.52;18.92;;;1.60;91.10;;;;;;4997020;28;20497;-72
2021/01/28 06:17:04;;;;;;;28.75;20.42;;;1.40;91.40;;;;;;4997562;28;20210;-71
2021/01/28 06:19:52;;;;;;;27.27;19.35;;;1.70;91.00;;;;;;4989821;28;20512;-71
2021/01/28 06:22:51;;;;;;;31.33;19.42;;;1.70;91.00;;;;;;4994900;28;20509;-71
2021/01/28 06:25:41;;;;;;;27.55;19.70;;;1.80;90.80;;;;;;5001437;28;20365;-71
2021/01/28 06:28:28;;;;;;;29.08;19.83;;;1.70;90.80;;;;;;4996962;28;20564;-72
2021/01/28 06:31:32;;;;;;;28.08;21.05;;;1.70;91.00;;;;;;4993095;28;20230;-72
2021/01/28 06:34:47;;;;;;;31.27;21.15;;;1.60;91.20;;;;;;4998709;28;20362;-71
2021/01/28 06:37:26;;;;;;;31.10;20.98;;;1.60;91.50;;;;;;4997755;28;20228;-72
2021/01/28 06:39:54;;;;;;;27.40;19.67;;;1.60;91.50;;;;;;4994666;28;20216;-71
2021/01/28 06:42:25;;;;;;;25.90;20.13;;;1.80;91.10;;;;;;4991256;28;20479;-72
2021/01/28 06:44:51;;;;;;;29.33;18.52;;;1.90;91.20;;;;;;4986981;28;20212;-72
2021/01/28 06:47:24;;;;;;;22.17;16.30;;;1.90;90.80;;;;;;4995646;28;20501;-72
2021/01/28 06:50:15;;;;;;;25.70;16.67;;;2.10;90.40;;;;;;4994304;28;20214;-72
2021/01/28 06:53:06;;;;;;;22.05;15.13;;;2.20;89.90;;;;;;5002378;28;20214;-72
2021/01/28 06:55:40;;;;;;;20.17;15.60;;;2.20;89.50;;;;;;4989534;28;20209;-72
2021/01/28 06:58:32;;;;;;;23.30;14.90;;;2.20;90.30;;;;;;4997774;28;20209;-71
2021/01/28 07:01:17;;;;;;;22.50;14.68;;;1.90;91.20;;;;;;4970730;28;20249;-73
2021/01/28 07:04:17;;;;;;;23.05;15.73;;;1.60;92.40;;;;;;4977500;28;20356;-71
2021/01/28 07:06:52;;;;;;;21.45;15.57;;;1.70;92.70;;;;;;4990536;28;20220;-71
2021/01/28 07:09:41;;;;;;;22.15;16.25;;;1.90;92.40;;;;;;4973050;28;20233;-71
2021/01/28 07:12:11;;;;;;;27.02;16.13;;;1.80;92.50;;;;;;4999158;28;20217;-72
2021/01/28 07:14:39;;;;;;;24.55;16.85;;;2.20;93.20;;;;;;4990109;28;20241;-72
2021/01/28 07:17:15;;;;;;;23.75;17.95;;;1.60;93.00;;;;;;4998676;28;20201;-71
2021/01/28 07:19:58;;;;;;;23.65;16.80;;;1.60;93.00;;;;;;4985752;28;20285;-72
2021/01/28 07:22:32;;;;;;;29.38;20.23;;;1.70;93.10;;;;;;4995354;28;20198;-71
2021/01/28 07:25:20;;;;;;;28.98;19.70;;;1.70;93.30;;;;;;4998969;28;20209;-72
2021/01/28 07:27:59;;;;;;;25.50;18.23;;;1.70;93.40;;;;;;4986170;28;20209;-70
2021/01/28 07:30:40;;;;;;;25.83;19.15;;;1.80;93.60;;;;;;4998048;28;20272;-70
2021/01/28 07:33:29;;;;;;;25.10;17.00;;;2.00;93.00;;;;;;4994426;28;20377;-71
2021/01/28 07:36:02;;;;;;;21.95;15.77;;;2.00;92.90;;;;;;4998435;28;20205;-71
2021/01/28 07:38:31;;;;;;;26.50;17.42;;;2.10;92.80;;;;;;4999322;28;20304;-71
2021/01/28 07:41:08;;;;;;;25.27;16.98;;;2.10;92.80;;;;;;4985659;28;20226;-71
2021/01/28 07:43:42;;;;;;;16.05;13.57;;;2.10;92.80;;;;;;4989313;28;20224;-71
2021/01/28 07:46:16;;;;;;;27.40;16.45;;;2.00;92.80;;;;;;4996497;28;20205;-72
2021/01/28 07:48:45;;;;;;;19.08;14.65;;;2.00;93.00;;;;;;4995240;28;20237;-71
2021/01/28 07:51:35;;;;;;;22.50;16.00;;;2.20;93.20;;;;;;4996769;28;20216;-71
2021/01/28 07:54:25;;;;;;;26.17;16.55;;;2.10;92.80;;;;;;4989961;28;20304;-71
2021/01/28 07:57:12;;;;;;;22.40;15.63;;;2.20;92.90;;;;;;4998576;28;20384;-71
2021/01/28 08:00:02;;;;;;;28.85;16.17;;;2.30;92.40;;;;;;4985399;28;20219;-71
2021/01/28 08:02:36;;;;;;;25.17;15.68;;;2.50;92.10;;;;;;4981033;28;20386;-71
2021/01/28 08:05:03;;;;;;;20.05;14.48;;;2.60;91.80;;;;;;4983804;28;20212;-72
2021/01/28 08:07:42;;;;;;;21.88;17.05;;;2.50;91.70;;;;;;4985745;28;20560;-71
2021/01/28 08:10:32;;;;;;;21.52;15.05;;;2.80;91.90;;;;;;4988283;28;20408;-71
2021/01/28 08:13:19;;;;;;;23.45;15.82;;;2.80;91.60;;;;;;4984452;28;20207;-71
2021/01/28 08:15:56;;;;;;;23.05;14.27;;;3.00;91.20;;;;;;4989879;28;20563;-70
2021/01/28 08:18:26;;;;;;;19.88;13.40;;;3.10;91.10;;;;;;4988665;28;20611;-70
2021/01/28 08:21:08;;;;;;;19.83;14.95;;;3.10;90.70;;;;;;4978883;28;20265;-70
2021/01/28 08:23:37;;;;;;;22.73;14.82;;;2.90;90.80;;;;;;4997278;28;20270;-69
2021/01/28 08:26:07;;;;;;;19.60;14.70;;;3.00;90.90;;;;;;4984798;28;20483;-70
2021/01/28 08:28:44;;;;;;;25.92;15.27;;;2.90;91.10;;;;;;4980448;28;20461;-71
2021/01/28 08:31:22;;;;;;;26.50;16.38;;;2.70;91.60;;;;;;4994845;28;20259;-70
2021/01/28 08:33:59;;;;;;;20.30;15.25;;;2.70;91.50;;;;;;4992795;28;20237;-70
2021/01/28 08:36:47;;;;;;;24.20;16.00;;;2.80;91.20;;;;;;4984525;28;20217;-69
2021/01/28 08:39:22;;;;;;;19.85;15.70;;;3.00;91.10;;;;;;4980486;28;20415;-69
2021/01/28 08:42:10;;;;;;;21.55;13.75;;;3.10;91.00;;;;;;4981556;28;20233;-69
2021/01/28 08:44:39;;;;;;;22.80;15.50;;;3.20;90.50;;;;;;4997943;28;20209;-69
2021/01/28 08:47:20;;;;;;;23.95;15.85;;;3.10;90.60;;;;;;4981596;28;20433;-69
2021/01/28 08:50:12;;;;;;;23.55;15.05;;;3.10;90.50;;;;;;4980014;28;20373;-68
2021/01/28 08:52:41;;;;;;;23.17;16.35;;;3.10;90.40;;;;;;4981386;28;20206;-68
2021/01/28 08:55:24;;;;;;;25.25;17.48;;;3.10;90.40;;;;;;4986600;28;20218;-68
2021/01/28 08:57:56;;;;;;;34.28;22.67;;;3.10;90.40;;;;;;4991274;28;20208;-69
2021/01/28 09:00:24;;;;;;;30.75;20.88;;;3.00;90.40;;;;;;4984026;28;20268;-68
2021/01/28 09:03:02;;;;;;;31.17;20.10;;;3.10;90.30;;;;;;4983339;28;20210;-68
2021/01/28 09:05:41;;;;;;;18.88;16.00;;;3.20;90.30;;;;;;4995045;28;20217;-69
2021/01/28 09:08:36;;;;;;;23.10;16.02;;;3.20;90.40;;;;;;4985940;28;20775;-69
2021/01/28 09:11:24;;;;;;;21.50;16.00;;;3.30;90.00;;;;;;4993283;28;20232;-69
2021/01/28 09:14:23;;;;;;;26.35;15.85;;;3.20;90.10;;;;;;4983327;28;20271;-68
2021/01/28 09:17:04;;;;;;;24.30;15.40;;;3.10;90.50;;;;;;4992988;28;20640;-70
2021/01/28 09:19:41;;;;;;;31.55;15.77;;;3.10;90.50;;;;;;4994364;28;20244;-69
2021/01/28 09:22:36;;;;;;;21.42;15.75;;;3.00;90.90;;;;;;4992462;28;20230;-69
2021/01/28 09:25:15;;;;;;;17.00;14.13;;;3.10;90.50;;;;;;4990668;28;20268;-69
2021/01/28 09:27:45;;;;;;;21.42;14.23;;;3.40;90.00;;;;;;4996390;28;20264;-69
2021/01/28 09:30:36;;;;;;;19.30;15.38;;;3.70;88.90;;;;;;4993212;28;20418;-69
2021/01/28 09:33:25;;;;;;;21.63;13.95;;;3.70;88.10;;;;;;4997248;28;20274;-69
2021/01/28 09:36:24;;;;;;;21.27;16.02;;;3.80;88.20;;;;;;4989188;28;20208;-69
2021/01/28 09:39:20;;;;;;;25.08;15.85;;;5.10;87.80;;;;;;4986688;28;20207;-69
2021/01/28 09:41:51;;;;;;;18.08;13.77;;;3.90;87.50;;;;;;5006326;28;20436;-69
2021/01/28 09:44:35;;;;;;;23.40;14.02;;;3.80;87.40;;;;;;4993635;28;20208;-69
2021/01/28 09:47:24;;;;;;;15.00;11.60;;;3.80;87.50;;;;;;4996274;28;20234;-69
2021/01/28 09:49:59;;;;;;;14.00;11.80;;;4.00;85.80;;;;;;4986046;28;20206;-69
2021/01/28 09:52:33;;;;;;;14.57;11.85;;;4.00;85.00;;;;;;4992780;28;20207;-69
2021/01/28 09:55:02;;;;;;;12.05;10.70;;;4.10;85.00;;;;;;4995416;28;20215;-69
2021/01/28 09:57:29;;;;;;;17.58;12.43;;;4.20;84.40;;;;;;4994780;28;20511;-69
2021/01/28 10:00:00;;;;;;;15.50;11.38;;;4.60;83.60;;;;;;4987538;28;20383;-69
2021/01/28 10:02:45;;;;;;;15.80;13.10;;;4.90;82.20;;;;;;4978626;28;20255;-69
2021/01/28 10:05:15;;;;;;;11.65;10.45;;;4.90;81.30;;;;;;4981924;28;20205;-69
2021/01/28 10:07:45;;;;;;;14.15;10.60;;;5.10;81.00;;;;;;4984774;28;20565;-69
2021/01/28 10:10:12;;;;;;;13.88;11.60;;;4.90;81.00;;;;;;4982947;28;20212;-69
2021/01/28 10:12:40;;;;;;;12.38;11.00;;;4.80;81.00;;;;;;5015689;28;20220;-69
2021/01/28 10:15:08;;;;;;;15.55;12.70;;;4.60;81.40;;;;;;4983328;28;20237;-69
2021/01/28 10:17:36;;;;;;;12.45;10.88;;;4.50;81.60;;;;;;4985990;28;20227;-68
2021/01/28 10:20:06;;;;;;;16.30;12.35;;;4.50;82.20;;;;;;4983907;28;20763;-69
2021/01/28 10:22:37;;;;;;;15.75;11.80;;;4.60;82.00;;;;;;4984547;28;20213;-70
2021/01/28 10:25:08;;;;;;;14.35;10.30;;;4.80;81.30;;;;;;4982245;28;20209;-70
2021/01/28 10:27:37;;;;;;;13.05;9.45;;;4.90;80.70;;;;;;4989961;28;20308;-70
2021/01/28 10:30:06;;;;;;;14.02;11.40;;;5.00;79.50;;;;;;4989052;28;20212;-70
2021/01/28 10:32:34;;;;;;;14.23;10.27;;;5.00;80.10;;;;;;4981595;28;20430;-69
2021/01/28 10:35:03;;;;;;;13.05;10.38;;;5.10;79.80;;;;;;4985027;28;20243;-69
2021/01/28 10:37:30;;;;;;;13.60;11.00;;;5.20;78.60;;;;;;4983305;28;20273;-69
2021/01/28 10:39:59;;;;;;;12.13;10.20;;;5.20;79.50;;;;;;4994436;28;20206;-68
2021/01/28 10:42:40;;;;;;;15.93;10.57;;;5.20;78.00;;;;;;4995301;28;20540;-69
2021/01/28 10:45:19;;;;;;;14.55;9.60;;;5.30;78.00;;;;;;4998801;28;20550;-68
2021/01/28 10:47:46;;;;;;;14.20;10.20;;;6.70;78.40;;;;;;4998627;28;20212;-68
2021/01/28 10:50:27;;;;;;;15.50;10.70;;;5.70;77.40;;;;;;4996133;28;20523;-68
2021/01/28 10:52:55;;;;;;;15.35;11.90;;;5.80;76.80;;;;;;4995163;28;20257;-68
2021/01/28 10:55:26;;;;;;;21.10;13.70;;;5.90;77.20;;;;;;4999481;28;20215;-68
2021/01/28 10:57:53;;;;;;;19.08;11.77;;;5.60;77.50;;;;;;4995723;28;20275;-68
2021/01/28 11:00:21;;;;;;;21.98;13.00;;;5.70;77.30;;;;;;4983988;28;20236;-68
2021/01/28 11:02:48;;;;;;;15.52;10.23;;;5.70;77.00;;;;;;4980707;28;20219;-68
2021/01/28 11:05:31;;;;;;;14.52;11.55;;;5.80;76.80;;;;;;4982626;28;20232;-68
2021/01/28 11:07:58;;;;;;;15.25;11.13;;;5.70;77.70;;;;;;4983536;28;20233;-68
2021/01/28 11:10:26;;;;;;;19.55;13.52;;;5.80;76.40;;;;;;4987886;28;20258;-68
2021/01/28 11:12:55;;;;;;;15.73;12.18;;;6.00;77.20;;;;;;4982371;28;20268;-69
2021/01/28 11:15:25;;;;;;;14.82;11.05;;;6.00;76.10;;;;;;4993391;28;20248;-69
2021/01/28 11:17:56;;;;;;;14.52;11.60;;;5.90;77.20;;;;;;4981190;28;20530;-71
2021/01/28 11:20:23;;;;;;;13.93;10.00;;;5.70;77.10;;;;;;4996967;28;20212;-69
2021/01/28 11:22:52;;;;;;;14.77;11.65;;;5.70;77.50;;;;;;4997765;28;20215;-68
2021/01/28 11:25:23;;;;;;;17.23;11.65;;;5.70;77.80;;;;;;4999455;28;20511;-68
2021/01/28 11:27:51;;;;;;;19.48;13.13;;;5.70;77.90;;;;;;4995553;28;20516;-69
2021/01/28 11:30:22;;;;;;;16.50;10.95;;;5.40;79.10;;;;;;4998626;28;20256;-69
2021/01/28 11:32:49;;;;;;;17.98;13.30;;;5.40;80.00;;;;;;4995590;28;20502;-69
2021/01/28 11:35:20;;;;;;;18.23;13.18;;;5.30;79.80;;;;;;4995660;28;20215;-69
2021/01/28 11:37:50;;;;;;;15.23;11.40;;;5.40;79.90;;;;;;4996228;28;20439;-69
2021/01/28 11:40:22;;;;;;;15.30;11.45;;;5.40;79.30;;;;;;4997401;28;20435;-69
2021/01/28 11:42:50;;;;;;;15.40;11.57;;;5.30;79.60;;;;;;4996441;28;20209;-69
2021/01/28 11:45:21;;;;;;;13.07;10.10;;;5.40;80.60;;;;;;4989937;28;20415;-69
2021/01/28 11:47:48;;;;;;;14.63;10.45;;;5.40;81.20;;;;;;4983626;28;20237;-70
2021/01/28 11:50:16;;;;;;;11.60;9.50;;;5.40;81.20;;;;;;4988271;28;20216;-69
2021/01/28 11:52:43;;;;;;;13.75;9.52;;;5.20;81.40;;;;;;4987114;28;20224;-69
2021/01/28 11:55:15;;;;;;;11.35;9.30;;;5.20;82.10;;;;;;4998926;28;20271;-69
2021/01/28 11:57:42;;;;;;;12.85;10.50;;;5.20;82.50;;;;;;4987263;28;20304;-69
2021/01/28 12:00:10;;;;;;;13.27;11.02;;;6.70;84.10;;;;;;4999413;28;20208;-68
2021/01/28 12:02:38;;;;;;;14.27;11.05;;;5.10;83.50;;;;;;4998445;28;20236;-69
2021/01/28 12:05:06;;;;;;;16.20;11.07;;;4.80;83.30;;;;;;4998110;28;20212;-69
2021/01/28 12:07:34;;;;;;;20.38;12.55;;;4.80;84.10;;;;;;4997720;28;20463;-69
2021/01/28 12:10:02;;;;;;;13.88;11.73;;;4.90;84.10;;;;;;4993832;28;20511;-68
2021/01/28 12:12:29;;;;;;;17.48;11.13;;;4.90;83.90;;;;;;4988255;28;20219;-69
2021/01/28 12:14:56;;;;;;;14.68;12.10;;;4.90;84.40;;;;;;4998118;28;20239;-70
2021/01/28 12:17:24;;;;;;;16.27;12.05;;;4.90;84.40;;;;;;4998048;28;20219;-69
2021/01/28 12:19:51;;;;;;;14.63;12.15;;;5.00;83.60;;;;;;4993242;28;20214;-69
2021/01/28 12:22:18;;;;;;;15.20;10.90;;;5.10;83.80;;;;;;5010163;28;20235;-70
2021/01/28 12:24:45;;;;;;;11.23;10.02;;;5.10;82.80;;;;;;4989023;28;20445;-69
2021/01/28 12:27:14;;;;;;;13.55;11.57;;;5.10;83.30;;;;;;4984930;28;20272;-69
2021/01/28 12:29:41;;;;;;;12.85;9.98;;;5.20;83.50;;;;;;4996558;28;20212;-70
2021/01/28 12:32:09;;;;;;;12.38;11.05;;;5.40;82.50;;;;;;4991285;28;20208;-70
2021/01/28 12:34:39;;;;;;;12.57;11.27;;;5.40;81.90;;;;;;4995049;28;20209;-70
2021/01/28 12:37:07;;;;;;;13.30;10.88;;;5.40;81.40;;;;;;4997288;28;20215;-69
2021/01/28 12:39:33;;;;;;;15.95;11.13;;;5.30;82.50;;;;;;4978514;28;20574;-70
2021/01/28 12:42:01;;;;;;;16.77;11.50;;;5.40;81.90;;;;;;4987842;28;20284;-70
2021/01/28 12:44:28;;;;;;;13.80;11.10;;;5.50;81.50;;;;;;4993171;28;20256;-72
2021/01/28 12:46:55;;;;;;;17.23;13.63;;;5.60;80.80;;;;;;4997291;28;20274;-71
2021/01/28 12:49:22;;;;;;;15.70;13.88;;;5.50;82.50;;;;;;4995907;28;20299;-70
2021/01/28 12:51:53;;;;;;;17.30;12.70;;;5.40;83.40;;;;;;4995278;28;20580;-71
2021/01/28 12:54:21;;;;;;;17.85;11.73;;;5.40;84.50;;;;;;4993988;28;20586;-71
2021/01/28 12:56:49;;;;;;;18.70;12.45;;;5.40;84.60;;;;;;4995492;28;20213;-71
2021/01/28 12:59:17;;;;;;;15.40;12.30;;;5.40;86.00;;;;;;4991516;28;20212;-72
2021/01/28 13:01:45;;;;;;;16.40;13.10;;;5.30;86.40;;;;;;4997144;28;20531;-71
2021/01/28 13:04:12;;;;;;;17.52;12.30;;;5.20;86.90;;;;;;4995941;28;20226;-71
2021/01/28 13:06:39;;;;;;;20.45;14.80;;;5.20;87.40;;;;;;4997265;28;20283;-73